COOK1: Arkansas River Nr Coolidge, KS

                                SHEF ID:       COOK1     ARKANSAS R NR COOLIDGE, KS
STATION TYPE:
Regulating: Stage = 8.00, Flow = 2050

PRECIP STAGE STAGE(2) RIV-FLOW WTR-TEMP CONDUCT BAT-LOAD
in ft ft cfs F umho/cm volt
Ccp-Rev Ccp-Rev Ccp-Rev Ccp-Rev Ccp-Rev Ccp-Rev Ccp-Rev
(America/Chicago)
06/15 00:00 0.00 2.56 2.61 59 69.06 6230 12.95
06/15 01:00 0.00 2.55 2.60 58 68.25 6208 12.89
06/15 02:00 0.00 2.56 2.60 59 67.35 6210 12.89
06/15 03:00 0.00 2.55 2.61 58 66.54 6215 12.89
06/15 04:00 0.00 2.56 2.61 59 65.77 6217 12.89
06/15 05:00 0.00 2.54 2.61 57 65.19 6179 12.83
06/15 06:00 0.00 2.55 2.61 58 64.71 6187 12.83
06/15 07:00 0.00 2.55 2.61 58 64.24 6215 12.83
06/15 08:00 0.00 2.55 2.61 58 64.18 6232 12.89
06/15 09:00 0.00 2.55 2.61 58 65.19 6248 12.95
06/15 10:00 0.00 2.55 2.62 58 67.21 6271 13.18
06/15 11:00 0.00 2.56 2.62 59 69.84 6287 13.48
06/15 12:00 0.00 2.55 2.61 58 72.75 6282 13.71
06/15 13:00 0.00 2.55 2.63 58 75.87 6280 13.77
06/15 14:00 0.00 2.56 2.62 59 78.94 6280 13.65
06/15 15:00 0.00 2.55 2.63 58 81.37 6268 13.71
06/15 16:00 0.00 2.56 2.59 59 82.98 6259 13.53
06/15 17:00 0.00 2.57 2.60 60 84.00 6244 13.42
06/15 18:00 0.00 2.56 2.59 59 84.42 6232 13.30
06/15 19:00 0.00 2.54 2.58 57 84.25 6224 13.18
06/15 20:00 0.00 2.56 2.59 59 83.37 6232 13.18
06/15 21:00 0.00 2.56 2.59 59 81.84 6219 13.07
06/15 22:00 0.00 2.56 2.59 59 80.26 6221 13.07
06/15 23:00 ---- ---- ---- ---- ---- ---- ----
Data processed at Sun 16Jun2024 04:30 GMT

Parsing this webpage?

Checkout our new Data API! CWMSDataAPI (CDA)

Timeseries IDs (TSIDs)

TSIDs used from left to right in the data table
COOL.Precip-Inc.Total.1Hour.1Hour.Ccp-Rev
COOL.Stage.Inst.1Hour.0.Ccp-Rev
COOL.Stage-Alt.Inst.1Hour.0.Ccp-Rev
COOL.Flow.Inst.1Hour.0.Ccp-Rev
COOL.Temp-Water.Inst.1Hour.0.Ccp-Rev
COOL.Cond.Inst.1Hour.0.Ccp-Rev
COOL.Volt-Battery Load.Inst.1Hour.0.Ccp-Rev

                            

All information presented herein is the property of the government of the United States of America and may be revised or deleted at any time without prior notice. Dissemination of this information without the expressed written consent of the Public Affairs Office, Tulsa District U.S. Army Corps of Engineers is strictly prohibited. These data are gathered electronically and, as presented, have NOT undergone any form of quality control. These data are NOT guaranteed to be valid or correct.